Time;durP1;ratioP1;P1;durP2;ratioP2;P2;SDS_P1;SDS_P2;PMS_P1;PMS_P2;Temp;Humidity;BMP_temperature;BMP_pressure;BME280_temperature;BME280_humidity;BME280_pressure;Samples;Min_cycle;Max_cycle;Signal;HPM_P1;HPM_P2
2023/05/07 02:00:19;;;;;;;6.15;2.35;;;;;;;;;;5020881;27;20176;-76
2023/05/07 02:02:46;;;;;;;2.47;2.28;;;;;;;;;;4278915;33;20183;-74
2023/05/07 02:05:15;;;;;;;12.07;2.47;;;;;;;;;;4280169;33;20059;-74
2023/05/07 02:07:42;;;;;;;3.40;2.30;;;;;;;;;;4282278;33;20083;-76
2023/05/07 02:10:08;;;;;;;2.53;2.33;;;;;;;;;;4282205;33;20069;-75
2023/05/07 02:12:35;;;;;;;4.80;2.42;;;;;;;;;;4282087;33;20038;-75
2023/05/07 02:15:01;;;;;;;2.78;2.40;;;;;;;;;;4282016;33;20063;-74
2023/05/07 02:17:27;;;;;;;3.22;1.50;;;;;;;;;;4279933;33;20053;-75
2023/05/07 02:19:53;;;;;;;1.92;1.73;;;;;;;;;;4282091;33;20053;-76
2023/05/07 02:22:20;;;;;;;2.08;1.87;;;;;;;;;;4281861;33;20078;-74
2023/05/07 02:24:46;;;;;;;3.70;2.37;;;;;;;;;;4281875;33;20896;-73
2023/05/07 02:27:12;;;;;;;2.30;2.10;;;;;;;;;;4280605;33;20057;-75
2023/05/07 02:29:39;;;;;;;5.30;2.25;;;;;;;;;;4277468;33;20053;-75
2023/05/07 02:32:06;;;;;;;2.72;2.37;;;;;;;;;;4281641;33;20057;-75
2023/05/07 02:34:32;;;;;;;3.28;2.00;;;;;;;;;;4283515;33;20078;-73
2023/05/07 02:36:58;;;;;;;2.47;2.28;;;;;;;;;;4283636;33;20110;-74
2023/05/07 02:39:25;;;;;;;3.80;2.37;;;;;;;;;;4283578;33;20079;-74
2023/05/07 02:41:51;;;;;;;1.70;1.58;;;;;;;;;;4281518;33;20053;-75
2023/05/07 02:44:17;;;;;;;2.10;1.92;;;;;;;;;;4283302;33;20112;-74
2023/05/07 02:46:45;;;;;;;3.80;2.33;;;;;;;;;;4283973;33;20063;-73
2023/05/07 02:49:11;;;;;;;1.67;1.58;;;;;;;;;;4283870;33;20037;-74
2023/05/07 02:51:37;;;;;;;3.55;2.03;;;;;;;;;;4282597;33;20462;-74
2023/05/07 02:54:06;;;;;;;1.83;1.70;;;;;;;;;;4281812;33;20083;-74
2023/05/07 02:56:33;;;;;;;6.10;1.90;;;;;;;;;;4282450;33;20057;-75
2023/05/07 02:58:59;;;;;;;1.90;1.80;;;;;;;;;;4283913;33;20075;-75
2023/05/07 03:01:26;;;;;;;8.02;2.12;;;;;;;;;;4271190;33;20053;-73
2023/05/07 03:03:53;;;;;;;2.25;1.58;;;;;;;;;;4278974;33;20033;-78
2023/05/07 03:06:19;;;;;;;3.60;2.12;;;;;;;;;;4280040;33;20057;-74
2023/05/07 03:08:45;;;;;;;2.50;2.30;;;;;;;;;;4280968;33;20071;-74
2023/05/07 03:11:11;;;;;;;2.47;1.48;;;;;;;;;;4280596;33;20046;-74
2023/05/07 03:13:37;;;;;;;2.55;1.65;;;;;;;;;;4280978;33;20547;-74
2023/05/07 03:16:04;;;;;;;2.33;1.90;;;;;;;;;;4292959;33;20067;-78
2023/05/07 03:18:30;;;;;;;1.73;1.58;;;;;;;;;;4280197;33;20042;-77
2023/05/07 03:20:56;;;;;;;3.70;2.37;;;;;;;;;;4281242;33;20063;-73
2023/05/07 03:23:22;;;;;;;2.17;1.73;;;;;;;;;;4281116;33;20037;-74
2023/05/07 03:25:49;;;;;;;1.92;1.83;;;;;;;;;;4281123;33;20122;-73
2023/05/07 03:28:15;;;;;;;4.15;2.33;;;;;;;;;;4277998;33;20034;-75
2023/05/07 03:30:42;;;;;;;5.00;1.92;;;;;;;;;;4280029;33;20067;-74
2023/05/07 03:33:08;;;;;;;1.80;1.70;;;;;;;;;;4281006;33;20073;-74
2023/05/07 03:35:35;;;;;;;2.25;2.03;;;;;;;;;;4280964;33;20071;-73
2023/05/07 03:38:01;;;;;;;3.40;2.20;;;;;;;;;;4279447;33;20423;-74
2023/05/07 03:40:28;;;;;;;2.62;2.03;;;;;;;;;;4279281;33;20081;-74
2023/05/07 03:42:55;;;;;;;4.57;2.25;;;;;;;;;;4280965;33;20045;-73
2023/05/07 03:45:22;;;;;;;2.12;2.00;;;;;;;;;;4279150;33;20046;-74
2023/05/07 03:47:49;;;;;;;1.33;1.23;;;;;;;;;;4258727;33;20031;-73
2023/05/07 03:50:16;;;;;;;3.00;2.50;;;;;;;;;;4263024;33;20054;-77
2023/05/07 03:52:43;;;;;;;2.72;2.08;;;;;;;;;;4264977;33;20061;-74
2023/05/07 03:55:09;;;;;;;2.05;1.95;;;;;;;;;;4266172;33;20042;-74
2023/05/07 03:57:36;;;;;;;5.10;2.15;;;;;;;;;;4265881;33;20042;-74
2023/05/07 04:00:04;;;;;;;2.55;1.95;;;;;;;;;;4266580;33;20042;-74
2023/05/07 04:02:32;;;;;;;2.00;1.90;;;;;;;;;;4293838;33;20037;-79
2023/05/07 04:04:59;;;;;;;1.75;1.65;;;;;;;;;;4293993;33;20048;-74
2023/05/07 04:07:25;;;;;;;4.10;1.77;;;;;;;;;;4295294;33;20524;-74
2023/05/07 04:09:51;;;;;;;2.35;1.80;;;;;;;;;;4283379;33;20078;-74
2023/05/07 04:12:18;;;;;;;2.00;1.62;;;;;;;;;;4279807;33;20099;-74
2023/05/07 04:14:44;;;;;;;1.77;1.67;;;;;;;;;;4276696;33;20075;-79
2023/05/07 04:17:11;;;;;;;2.33;2.22;;;;;;;;;;4279817;33;20100;-74
2023/05/07 04:19:38;;;;;;;2.58;2.28;;;;;;;;;;4280011;33;20077;-73
2023/05/07 04:22:04;;;;;;;6.35;1.80;;;;;;;;;;4279473;33;20048;-74
2023/05/07 04:24:33;;;;;;;8.30;2.40;;;;;;;;;;4260897;33;20436;-75
2023/05/07 04:27:00;;;;;;;2.78;1.90;;;;;;;;;;4263479;33;20057;-73
2023/05/07 04:29:26;;;;;;;4.53;2.35;;;;;;;;;;4263892;33;20099;-73
2023/05/07 04:31:55;;;;;;;3.05;2.12;;;;;;;;;;4265596;33;20063;-73
2023/05/07 04:34:22;;;;;;;1.12;1.12;;;;;;;;;;4227952;33;20064;-73
2023/05/07 04:36:48;;;;;;;3.20;2.00;;;;;;;;;;4221199;33;20100;-75
2023/05/07 04:39:14;;;;;;;2.40;2.05;;;;;;;;;;4223235;33;20059;-74
2023/05/07 04:41:41;;;;;;;4.03;2.10;;;;;;;;;;4221418;33;20068;-75
2023/05/07 04:44:09;;;;;;;2.30;2.10;;;;;;;;;;4222724;33;20471;-73
2023/05/07 04:46:35;;;;;;;4.40;1.92;;;;;;;;;;4223521;33;20068;-77
2023/05/07 04:49:03;;;;;;;1.87;1.80;;;;;;;;;;4246953;33;20062;-75
2023/05/07 04:51:29;;;;;;;2.37;1.50;;;;;;;;;;4265916;33;20422;-74
2023/05/07 04:53:55;;;;;;;1.87;1.77;;;;;;;;;;4259234;33;20064;-75
2023/05/07 04:56:21;;;;;;;2.20;1.83;;;;;;;;;;4249278;33;20054;-77
2023/05/07 04:58:48;;;;;;;2.33;2.08;;;;;;;;;;4255508;33;20066;-75
2023/05/07 05:01:14;;;;;;;2.22;1.90;;;;;;;;;;4263675;33;20067;-74
2023/05/07 05:03:41;;;;;;;2.03;1.42;;;;;;;;;;4264788;33;20433;-75
2023/05/07 05:06:07;;;;;;;5.75;1.92;;;;;;;;;;4253786;33;20543;-75
2023/05/07 05:08:33;;;;;;;2.65;1.55;;;;;;;;;;4246657;33;20092;-75
2023/05/07 05:11:01;;;;;;;2.00;1.67;;;;;;;;;;4249238;33;21003;-72
2023/05/07 05:13:28;;;;;;;3.20;1.90;;;;;;;;;;4250635;33;20053;-73
2023/05/07 05:15:54;;;;;;;2.25;2.05;;;;;;;;;;4250313;33;20064;-74
2023/05/07 05:18:21;;;;;;;4.68;2.55;;;;;;;;;;4250690;33;20064;-73
2023/05/07 05:20:47;;;;;;;2.40;2.20;;;;;;;;;;4252178;33;20481;-74
2023/05/07 05:23:13;;;;;;;8.48;2.90;;;;;;;;;;4278092;33;20063;-72
2023/05/07 05:25:40;;;;;;;3.12;2.35;;;;;;;;;;4281179;33;20115;-73
2023/05/07 05:28:07;;;;;;;4.45;2.42;;;;;;;;;;4282107;33;20050;-74
2023/05/07 05:30:33;;;;;;;3.67;2.12;;;;;;;;;;4281775;33;20471;-74
2023/05/07 05:33:00;;;;;;;5.72;2.45;;;;;;;;;;4280854;33;20049;-74
2023/05/07 05:35:27;;;;;;;2.10;1.90;;;;;;;;;;4279100;33;20067;-73
2023/05/07 05:37:54;;;;;;;2.10;1.90;;;;;;;;;;4294974;33;20033;-73
2023/05/07 05:40:21;;;;;;;7.28;1.80;;;;;;;;;;4296496;33;20385;-73
2023/05/07 05:42:48;;;;;;;2.10;1.23;;;;;;;;;;4295847;33;20088;-74
2023/05/07 05:45:15;;;;;;;5.22;2.03;;;;;;;;;;4294470;33;20041;-75
2023/05/07 05:47:43;;;;;;;2.45;2.25;;;;;;;;;;4284769;33;20568;-76
2023/05/07 05:50:09;;;;;;;3.30;2.22;;;;;;;;;;4288199;33;20559;-76
2023/05/07 05:52:36;;;;;;;3.83;2.15;;;;;;;;;;4278731;33;20628;-78
2023/05/07 05:55:03;;;;;;;3.53;2.20;;;;;;;;;;4281582;33;20412;-75
2023/05/07 05:57:29;;;;;;;5.57;1.60;;;;;;;;;;4290970;33;20046;-75
2023/05/07 05:59:55;;;;;;;3.97;1.73;;;;;;;;;;4293215;33;20919;-74
2023/05/07 06:02:23;;;;;;;3.53;2.53;;;;;;;;;;4282564;33;20079;-73
2023/05/07 06:04:49;;;;;;;3.20;2.03;;;;;;;;;;4281990;33;20574;-74
2023/05/07 06:07:16;;;;;;;2.22;1.52;;;;;;;;;;4280009;33;20045;-73
2023/05/07 06:09:42;;;;;;;2.80;2.08;;;;;;;;;;4280240;33;20029;-76
2023/05/07 06:12:08;;;;;;;2.47;2.28;;;;;;;;;;4283615;33;20078;-74
2023/05/07 06:14:35;;;;;;;2.42;2.10;;;;;;;;;;4293700;33;20084;-75
2023/05/07 06:17:01;;;;;;;2.08;1.90;;;;;;;;;;4283536;33;20116;-76
2023/05/07 06:19:28;;;;;;;2.35;1.58;;;;;;;;;;4282268;33;20306;-75
2023/05/07 06:21:56;;;;;;;1.65;1.40;;;;;;;;;;4281453;33;20083;-76
2023/05/07 06:24:22;;;;;;;2.05;1.73;;;;;;;;;;4281476;33;20050;-75
2023/05/07 06:26:49;;;;;;;2.35;1.55;;;;;;;;;;4285817;33;20184;-76
2023/05/07 06:29:15;;;;;;;3.35;1.77;;;;;;;;;;4312710;33;20049;-76
2023/05/07 06:31:41;;;;;;;1.87;1.73;;;;;;;;;;4311290;33;20052;-82
2023/05/07 06:34:08;;;;;;;2.08;1.98;;;;;;;;;;4312472;33;20449;-77
2023/05/07 06:36:35;;;;;;;2.75;1.90;;;;;;;;;;4312714;33;20078;-76
2023/05/07 06:39:01;;;;;;;3.17;2.20;;;;;;;;;;4295803;33;20565;-78
2023/05/07 06:41:28;;;;;;;1.92;1.83;;;;;;;;;;4295807;33;20088;-79
2023/05/07 06:43:54;;;;;;;2.87;2.22;;;;;;;;;;4293632;33;20041;-76
2023/05/07 06:46:23;;;;;;;2.50;1.70;;;;;;;;;;4295079;33;20067;-74
2023/05/07 06:48:49;;;;;;;3.70;2.65;;;;;;;;;;4289826;33;20158;-75
2023/05/07 06:51:16;;;;;;;2.40;1.90;;;;;;;;;;4266857;33;20066;-74
2023/05/07 06:53:42;;;;;;;3.97;2.20;;;;;;;;;;4270704;33;20068;-75
2023/05/07 06:56:09;;;;;;;2.70;2.10;;;;;;;;;;4276536;33;20038;-73
2023/05/07 06:58:37;;;;;;;1.33;1.33;;;;;;;;;;4274505;33;20051;-73
2023/05/07 07:01:04;;;;;;;2.08;1.87;;;;;;;;;;4257954;33;20064;-72
2023/05/07 07:03:31;;;;;;;2.70;1.75;;;;;;;;;;4256050;33;20075;-73
2023/05/07 07:05:57;;;;;;;3.00;2.47;;;;;;;;;;4253328;33;20876;-74
2023/05/07 07:08:23;;;;;;;3.53;2.30;;;;;;;;;;4260128;33;21046;-75
2023/05/07 07:10:50;;;;;;;2.80;1.73;;;;;;;;;;4274143;33;20063;-75
2023/05/07 07:13:16;;;;;;;1.90;1.75;;;;;;;;;;4280683;33;20041;-75
2023/05/07 07:15:43;;;;;;;2.20;2.00;;;;;;;;;;4280612;33;20054;-74
2023/05/07 07:18:09;;;;;;;5.35;2.25;;;;;;;;;;4280153;33;20070;-76
2023/05/07 07:20:36;;;;;;;6.65;2.05;;;;;;;;;;4266175;33;20068;-75
2023/05/07 07:23:03;;;;;;;1.80;1.70;;;;;;;;;;4255037;33;20059;-75
2023/05/07 07:25:30;;;;;;;1.90;1.45;;;;;;;;;;4252282;33;20110;-75
2023/05/07 07:27:56;;;;;;;2.20;2.03;;;;;;;;;;4251751;33;20360;-75
2023/05/07 07:30:23;;;;;;;2.17;1.98;;;;;;;;;;4250288;33;20042;-76
2023/05/07 07:32:49;;;;;;;5.03;3.00;;;;;;;;;;4267330;33;20041;-76
2023/05/07 07:35:15;;;;;;;2.33;1.77;;;;;;;;;;4273898;33;20436;-75
2023/05/07 07:37:41;;;;;;;2.10;1.60;;;;;;;;;;4275368;33;20371;-73
2023/05/07 07:40:09;;;;;;;1.92;1.75;;;;;;;;;;4280279;33;20053;-73
2023/05/07 07:42:35;;;;;;;1.77;1.67;;;;;;;;;;4278845;33;20042;-77
2023/05/07 07:45:02;;;;;;;1.75;1.65;;;;;;;;;;4252314;33;20988;-75
2023/05/07 07:47:29;;;;;;;2.87;1.73;;;;;;;;;;4250423;33;20127;-74
2023/05/07 07:49:56;;;;;;;1.70;1.60;;;;;;;;;;4251215;33;20057;-74
2023/05/07 07:52:22;;;;;;;3.87;1.45;;;;;;;;;;4264099;33;20045;-75
2023/05/07 07:54:48;;;;;;;1.77;1.67;;;;;;;;;;4269760;33;20094;-74
2023/05/07 07:57:14;;;;;;;2.20;1.33;;;;;;;;;;4270460;33;20061;-75
2023/05/07 07:59:43;;;;;;;3.50;1.90;;;;;;;;;;4271006;33;20538;-75
2023/05/07 08:02:10;;;;;;;1.95;1.77;;;;;;;;;;4272580;33;20191;-74
2023/05/07 08:04:37;;;;;;;3.12;1.90;;;;;;;;;;4270398;33;20633;-77
2023/05/07 08:07:03;;;;;;;2.47;2.25;;;;;;;;;;4272053;33;20071;-75
2023/05/07 08:09:31;;;;;;;3.08;2.30;;;;;;;;;;4272997;33;20055;-75
2023/05/07 08:11:58;;;;;;;4.35;2.33;;;;;;;;;;4272020;33;20111;-73
2023/05/07 08:14:25;;;;;;;3.28;1.73;;;;;;;;;;4272948;33;20037;-73
2023/05/07 08:16:51;;;;;;;2.53;2.03;;;;;;;;;;4273096;33;20033;-75
2023/05/07 08:19:17;;;;;;;2.83;2.12;;;;;;;;;;4278191;33;20082;-74
2023/05/07 08:21:44;;;;;;;1.70;1.60;;;;;;;;;;4278706;33;20049;-75
2023/05/07 08:24:11;;;;;;;3.58;2.28;;;;;;;;;;4278301;33;20045;-74
2023/05/07 08:26:39;;;;;;;2.28;1.65;;;;;;;;;;4277648;33;20097;-76
2023/05/07 08:29:05;;;;;;;2.87;1.50;;;;;;;;;;4269942;33;20045;-75
2023/05/07 08:31:32;;;;;;;1.40;1.40;;;;;;;;;;4272352;33;21174;-77
2023/05/07 08:33:58;;;;;;;2.60;2.05;;;;;;;;;;4282592;33;20102;-75
2023/05/07 08:36:25;;;;;;;3.10;2.05;;;;;;;;;;4289123;33;20052;-75
2023/05/07 08:38:52;;;;;;;1.58;1.48;;;;;;;;;;4305269;33;20066;-75
2023/05/07 08:41:18;;;;;;;3.42;1.83;;;;;;;;;;4307473;33;20074;-75
2023/05/07 08:43:47;;;;;;;1.27;1.23;;;;;;;;;;4309598;33;20928;-75
2023/05/07 08:46:16;;;;;;;1.80;1.70;;;;;;;;;;4309644;33;20062;-75
2023/05/07 08:48:42;;;;;;;2.08;1.95;;;;;;;;;;4303956;33;20078;-74
2023/05/07 08:51:13;;;;;;;1.50;1.40;;;;;;;;;;4296927;33;20063;-77
2023/05/07 08:53:40;;;;;;;1.47;1.40;;;;;;;;;;4272874;33;20053;-74
2023/05/07 08:56:08;;;;;;;1.55;1.45;;;;;;;;;;4271569;33;20063;-75
2023/05/07 08:58:34;;;;;;;2.35;1.87;;;;;;;;;;4271561;33;20558;-74
2023/05/07 09:01:06;;;;;;;2.67;2.47;;;;;;;;;;4273800;33;20053;-76
2023/05/07 09:03:33;;;;;;;4.12;1.52;;;;;;;;;;4271764;33;20065;-75
2023/05/07 09:05:59;;;;;;;2.67;1.92;;;;;;;;;;4274608;33;20056;-74
2023/05/07 09:08:26;;;;;;;1.42;1.40;;;;;;;;;;4276756;33;20509;-75
2023/05/07 09:10:53;;;;;;;1.50;1.40;;;;;;;;;;4276696;33;20029;-74
2023/05/07 09:13:19;;;;;;;1.80;1.70;;;;;;;;;;4273419;33;20567;-78
2023/05/07 09:15:46;;;;;;;1.65;1.58;;;;;;;;;;4264934;33;20071;-75
2023/05/07 09:18:12;;;;;;;2.87;1.83;;;;;;;;;;4261904;33;20191;-74
2023/05/07 09:20:40;;;;;;;1.85;1.75;;;;;;;;;;4251239;33;20041;-74
2023/05/07 09:23:07;;;;;;;4.60;1.50;;;;;;;;;;4250570;33;20050;-74
2023/05/07 09:25:34;;;;;;;2.55;1.90;;;;;;;;;;4266921;33;20033;-73
2023/05/07 09:28:02;;;;;;;9.25;2.30;;;;;;;;;;4272360;33;20548;-74
2023/05/07 09:30:29;;;;;;;1.67;1.42;;;;;;;;;;4292079;33;20081;-74
2023/05/07 09:33:00;;;;;;;3.15;1.52;;;;;;;;;;4294126;33;20056;-73
2023/05/07 09:35:29;;;;;;;2.28;1.87;;;;;;;;;;4293645;33;20083;-75
2023/05/07 09:37:57;;;;;;;3.28;1.83;;;;;;;;;;4281056;33;20140;-74
2023/05/07 09:40:24;;;;;;;2.05;1.40;;;;;;;;;;4280356;33;20081;-74
2023/05/07 09:42:51;;;;;;;3.78;2.42;;;;;;;;;;4278683;33;20045;-74
2023/05/07 09:45:29;;;;;;;6.05;2.00;;;;;;;;;;4280577;33;20814;-74
2023/05/07 09:47:57;;;;;;;2.30;1.92;;;;;;;;;;4292810;33;20097;-75
2023/05/07 09:50:35;;;;;;;3.08;1.90;;;;;;;;;;4294662;33;20118;-74
2023/05/07 09:53:03;;;;;;;1.55;1.45;;;;;;;;;;4307313;33;20173;-76
2023/05/07 09:55:30;;;;;;;1.85;1.75;;;;;;;;;;4308920;33;20041;-73
2023/05/07 09:57:57;;;;;;;6.32;1.85;;;;;;;;;;4309189;33;20045;-73
2023/05/07 10:00:23;;;;;;;2.20;1.75;;;;;;;;;;4310246;33;20060;-74
2023/05/07 10:02:58;;;;;;;2.55;2.17;;;;;;;;;;4305339;33;20044;-74
2023/05/07 10:05:25;;;;;;;5.15;1.58;;;;;;;;;;4301566;33;20058;-73
2023/05/07 10:07:52;;;;;;;1.77;1.62;;;;;;;;;;4305759;33;20135;-73
2023/05/07 10:10:20;;;;;;;2.12;1.73;;;;;;;;;;4308266;33;20615;-73
2023/05/07 10:12:47;;;;;;;1.77;1.62;;;;;;;;;;4306240;33;20482;-73
2023/05/07 10:15:14;;;;;;;3.47;1.70;;;;;;;;;;4300226;33;20115;-74
2023/05/07 10:17:41;;;;;;;1.80;1.70;;;;;;;;;;4306764;33;20100;-72
2023/05/07 10:20:08;;;;;;;2.42;2.12;;;;;;;;;;4308668;33;20207;-73
2023/05/07 10:22:39;;;;;;;2.90;2.20;;;;;;;;;;4307567;33;20041;-74
2023/05/07 10:25:13;;;;;;;1.50;1.50;;;;;;;;;;4309311;33;20379;-75
2023/05/07 10:27:40;;;;;;;2.72;1.83;;;;;;;;;;4311032;33;20481;-74
2023/05/07 10:30:20;;;;;;;3.03;2.12;;;;;;;;;;4310508;33;20052;-74
2023/05/07 10:32:51;;;;;;;3.87;1.95;;;;;;;;;;4310290;33;20077;-72
2023/05/07 10:35:21;;;;;;;2.28;1.87;;;;;;;;;;4309505;33;20617;-73
2023/05/07 10:37:48;;;;;;;2.42;1.85;;;;;;;;;;4294538;33;20079;-74
2023/05/07 10:40:14;;;;;;;1.40;1.40;;;;;;;;;;4295553;33;20403;-72
2023/05/07 10:42:54;;;;;;;5.93;1.90;;;;;;;;;;4295073;33;20333;-74
2023/05/07 10:45:21;;;;;;;2.00;1.90;;;;;;;;;;4292187;33;20439;-73
2023/05/07 10:48:13;;;;;;;1.83;1.73;;;;;;;;;;4295794;33;20079;-73
2023/05/07 10:50:41;;;;;;;7.95;1.90;;;;;;;;;;4293089;33;20045;-74
2023/05/07 10:53:17;;;;;;;2.33;1.65;;;;;;;;;;4261322;33;20041;-74
2023/05/07 10:55:44;;;;;;;3.62;1.77;;;;;;;;;;4259674;33;20529;-75
2023/05/07 10:58:21;;;;;;;2.58;2.00;;;;;;;;;;4250148;33;20244;-74
2023/05/07 11:00:54;;;;;;;1.80;1.70;;;;;;;;;;4389611;28;20073;-73
2023/05/07 11:03:22;;;;;;;2.45;2.28;;;;;;;;;;4197986;34;20152;-77
2023/05/07 11:06:08;;;;;;;6.80;1.73;;;;;;;;;;4196964;34;20389;-74
2023/05/07 11:08:55;;;;;;;2.20;2.00;;;;;;;;;;4189478;34;20104;-72
2023/05/07 11:11:41;;;;;;;2.03;1.90;;;;;;;;;;4184796;34;20060;-73
2023/05/07 11:14:08;;;;;;;1.65;1.55;;;;;;;;;;4189290;34;20073;-76
2023/05/07 11:16:36;;;;;;;1.30;1.12;;;;;;;;;;4199358;34;20065;-76
2023/05/07 11:19:04;;;;;;;6.62;1.65;;;;;;;;;;4193863;34;20819;-75
2023/05/07 11:21:38;;;;;;;3.90;2.10;;;;;;;;;;4189926;34;20129;-74
2023/05/07 11:24:06;;;;;;;3.03;1.85;;;;;;;;;;4216924;33;20042;-75
2023/05/07 11:26:43;;;;;;;4.03;1.90;;;;;;;;;;4240596;33;20068;-75
2023/05/07 11:29:13;;;;;;;1.70;1.60;;;;;;;;;;4235274;33;20100;-74
2023/05/07 11:31:40;;;;;;;1.55;1.45;;;;;;;;;;4236043;33;20066;-73
2023/05/07 11:34:07;;;;;;;5.28;2.00;;;;;;;;;;4237207;33;20168;-75
2023/05/07 11:36:33;;;;;;;1.60;1.50;;;;;;;;;;4247750;33;20179;-79
2023/05/07 11:39:00;;;;;;;1.30;1.17;;;;;;;;;;4234319;33;20448;-74
2023/05/07 11:41:36;;;;;;;3.10;1.37;;;;;;;;;;4236220;33;20062;-72
2023/05/07 11:44:03;;;;;;;1.48;1.37;;;;;;;;;;4260194;33;20042;-73
2023/05/07 11:46:29;;;;;;;2.62;1.40;;;;;;;;;;4245875;33;20184;-72
2023/05/07 11:48:56;;;;;;;1.40;1.30;;;;;;;;;;4247115;33;20072;-74
2023/05/07 11:51:23;;;;;;;1.65;1.48;;;;;;;;;;4249471;33;20080;-71
2023/05/07 11:53:50;;;;;;;2.37;1.92;;;;;;;;;;4247639;33;20411;-73
2023/05/07 11:56:22;;;;;;;1.52;1.37;;;;;;;;;;4247868;33;20046;-73
2023/05/07 11:58:50;;;;;;;3.90;1.83;;;;;;;;;;4243052;33;20073;-73
2023/05/07 12:01:16;;;;;;;2.20;1.58;;;;;;;;;;4262142;33;20050;-72
2023/05/07 12:03:45;;;;;;;4.03;1.80;;;;;;;;;;4263926;33;20046;-73
2023/05/07 12:06:12;;;;;;;3.58;1.60;;;;;;;;;;4266251;33;20356;-74
2023/05/07 12:08:39;;;;;;;1.48;1.37;;;;;;;;;;4280127;33;20073;-73
2023/05/07 12:11:07;;;;;;;1.50;1.40;;;;;;;;;;4278622;33;20479;-76
2023/05/07 12:13:33;;;;;;;1.42;1.40;;;;;;;;;;4280281;33;20083;-73
2023/05/07 12:15:59;;;;;;;1.80;1.50;;;;;;;;;;4278504;33;20037;-72
2023/05/07 12:18:25;;;;;;;1.87;1.70;;;;;;;;;;4290710;33;20062;-72
2023/05/07 12:20:51;;;;;;;2.60;2.37;;;;;;;;;;4291336;33;20570;-72
2023/05/07 12:23:18;;;;;;;3.55;1.40;;;;;;;;;;4292384;33;20135;-76
2023/05/07 12:25:47;;;;;;;1.87;1.73;;;;;;;;;;4273890;33;20087;-72
2023/05/07 12:28:15;;;;;;;1.98;1.87;;;;;;;;;;4277738;33;20075;-73
2023/05/07 12:30:42;;;;;;;16.40;2.12;;;;;;;;;;4277983;33;20038;-73
2023/05/07 12:33:09;;;;;;;2.00;1.40;;;;;;;;;;4278099;33;20092;-73
2023/05/07 12:35:41;;;;;;;2.05;1.42;;;;;;;;;;4276506;33;20067;-73
2023/05/07 12:38:08;;;;;;;1.62;1.52;;;;;;;;;;4276629;33;20591;-73
2023/05/07 12:40:39;;;;;;;3.70;1.55;;;;;;;;;;4268213;33;20087;-73
2023/05/07 12:43:05;;;;;;;5.03;1.90;;;;;;;;;;4266177;33;20108;-73
2023/05/07 12:45:36;;;;;;;1.92;1.77;;;;;;;;;;4262973;33;20034;-74
2023/05/07 12:48:02;;;;;;;2.40;1.87;;;;;;;;;;4262634;33;20081;-73
2023/05/07 12:50:32;;;;;;;1.30;1.30;;;;;;;;;;4276783;33;20112;-73
2023/05/07 12:52:59;;;;;;;4.15;1.50;;;;;;;;;;4277409;33;20046;-74
2023/05/07 12:55:25;;;;;;;4.12;2.72;;;;;;;;;;4277162;33;20083;-74
2023/05/07 12:57:53;;;;;;;2.55;1.92;;;;;;;;;;4285655;33;20049;-73
2023/05/07 13:00:35;;;;;;;5.47;1.85;;;;;;;;;;4289149;33;20155;-75
2023/05/07 13:03:02;;;;;;;3.08;1.62;;;;;;;;;;4286082;33;20453;-73
2023/05/07 13:05:28;;;;;;;1.73;1.62;;;;;;;;;;4292629;33;20143;-74
2023/05/07 13:07:54;;;;;;;1.73;1.58;;;;;;;;;;4304590;33;20070;-73
2023/05/07 13:10:21;;;;;;;2.65;1.80;;;;;;;;;;4307576;33;20067;-74
2023/05/07 13:12:47;;;;;;;6.53;2.50;;;;;;;;;;4306603;33;20101;-73
2023/05/07 13:15:14;;;;;;;2.33;1.62;;;;;;;;;;4305422;33;20071;-73
2023/05/07 13:17:40;;;;;;;4.40;2.00;;;;;;;;;;4304982;33;20053;-75
2023/05/07 13:20:08;;;;;;;3.65;2.17;;;;;;;;;;4297309;33;20920;-74
2023/05/07 13:22:34;;;;;;;8.50;2.33;;;;;;;;;;4298428;33;20071;-73
2023/05/07 13:25:00;;;;;;;4.07;1.92;;;;;;;;;;4318210;33;20216;-73
2023/05/07 13:27:26;;;;;;;5.60;2.03;;;;;;;;;;4305272;33;20090;-74
2023/05/07 13:29:52;;;;;;;1.85;1.75;;;;;;;;;;4291383;33;20072;-74
2023/05/07 13:32:19;;;;;;;2.17;1.85;;;;;;;;;;4292378;33;20108;-75
2023/05/07 13:34:44;;;;;;;1.80;1.70;;;;;;;;;;4292313;33;20131;-75
2023/05/07 13:37:11;;;;;;;2.12;1.58;;;;;;;;;;4277396;33;20053;-76
2023/05/07 13:39:37;;;;;;;4.62;2.35;;;;;;;;;;4278758;33;20049;-75
2023/05/07 13:42:04;;;;;;;3.97;2.87;;;;;;;;;;4276011;33;20182;-76
2023/05/07 13:44:30;;;;;;;4.62;2.20;;;;;;;;;;4271831;33;20063;-74
2023/05/07 13:46:56;;;;;;;3.75;2.87;;;;;;;;;;4286559;33;20067;-75
2023/05/07 13:49:22;;;;;;;3.17;2.83;;;;;;;;;;4281827;33;20065;-75
2023/05/07 13:51:48;;;;;;;1.90;1.75;;;;;;;;;;4264478;33;20080;-75
2023/05/07 13:54:15;;;;;;;2.78;1.75;;;;;;;;;;4260775;33;20375;-76
2023/05/07 13:56:41;;;;;;;1.85;1.70;;;;;;;;;;4268477;33;20079;-75
2023/05/07 13:59:08;;;;;;;5.10;2.50;;;;;;;;;;4266382;33;20109;-74
2023/05/07 14:01:34;;;;;;;8.27;1.92;;;;;;;;;;4250645;33;20496;-75
2023/05/07 14:04:00;;;;;;;1.62;1.50;;;;;;;;;;4251398;33;20060;-76
2023/05/07 14:06:27;;;;;;;3.12;1.73;;;;;;;;;;4249840;33;20053;-75
2023/05/07 14:08:52;;;;;;;1.40;1.35;;;;;;;;;;4228255;33;20138;-75
2023/05/07 14:11:20;;;;;;;2.17;1.73;;;;;;;;;;4222579;33;20078;-74
2023/05/07 14:13:52;;;;;;;1.80;1.70;;;;;;;;;;4237116;33;20038;-73
2023/05/07 14:16:19;;;;;;;1.87;1.50;;;;;;;;;;4225451;33;20070;-74
2023/05/07 14:18:45;;;;;;;7.78;1.70;;;;;;;;;;4221796;33;20051;-74
2023/05/07 14:21:11;;;;;;;3.10;2.15;;;;;;;;;;4218612;34;20051;-74
2023/05/07 14:23:37;;;;;;;3.25;1.80;;;;;;;;;;4243199;33;20477;-73
2023/05/07 14:26:03;;;;;;;4.97;2.47;;;;;;;;;;4236432;33;20116;-75
2023/05/07 14:28:29;;;;;;;1.62;1.50;;;;;;;;;;4237563;33;20042;-74
2023/05/07 14:30:56;;;;;;;2.55;1.73;;;;;;;;;;4246860;33;20469;-73
2023/05/07 14:33:22;;;;;;;2.33;1.48;;;;;;;;;;4251200;33;20073;-75
2023/05/07 14:35:49;;;;;;;5.32;2.33;;;;;;;;;;4251696;33;20081;-74
2023/05/07 14:38:16;;;;;;;5.40;1.90;;;;;;;;;;4246296;33;20342;-76
2023/05/07 14:40:42;;;;;;;5.78;2.00;;;;;;;;;;4250293;33;20046;-73
2023/05/07 14:43:08;;;;;;;2.53;1.83;;;;;;;;;;4252061;33;20071;-73
2023/05/07 14:45:34;;;;;;;3.55;1.92;;;;;;;;;;4250653;33;20058;-73
2023/05/07 14:48:00;;;;;;;1.80;1.67;;;;;;;;;;4231527;33;20152;-74
2023/05/07 14:50:26;;;;;;;1.83;1.73;;;;;;;;;;4221306;33;20123;-78
2023/05/07 14:52:52;;;;;;;2.47;1.62;;;;;;;;;;4227224;33;20567;-73
2023/05/07 14:55:19;;;;;;;2.28;2.10;;;;;;;;;;4218875;33;20046;-74
2023/05/07 14:57:45;;;;;;;1.60;1.50;;;;;;;;;;4210087;34;20046;-74
2023/05/07 15:00:12;;;;;;;3.35;1.65;;;;;;;;;;4210111;34;20081;-74
2023/05/07 15:02:38;;;;;;;1.95;1.42;;;;;;;;;;4207515;34;20094;-73
2023/05/07 15:05:05;;;;;;;3.95;1.55;;;;;;;;;;4210371;34;20406;-74
2023/05/07 15:07:34;;;;;;;1.83;1.73;;;;;;;;;;4216364;34;20039;-73
2023/05/07 15:10:00;;;;;;;2.62;1.90;;;;;;;;;;4215937;34;20170;-74
2023/05/07 15:12:26;;;;;;;8.93;1.80;;;;;;;;;;4215868;34;20047;-74
2023/05/07 15:14:52;;;;;;;3.33;2.08;;;;;;;;;;4213763;34;20069;-74
2023/05/07 15:17:18;;;;;;;1.70;1.60;;;;;;;;;;4213490;33;20114;-73
2023/05/07 15:19:45;;;;;;;1.25;0.90;;;;;;;;;;4236753;33;20049;-73
2023/05/07 15:22:11;;;;;;;3.60;1.85;;;;;;;;;;4237259;33;20819;-75
2023/05/07 15:24:37;;;;;;;2.05;1.60;;;;;;;;;;4241999;33;20066;-74
2023/05/07 15:27:03;;;;;;;1.50;1.45;;;;;;;;;;4234870;33;20054;-74
2023/05/07 15:29:29;;;;;;;2.42;1.85;;;;;;;;;;4241227;33;20510;-72
2023/05/07 15:31:56;;;;;;;3.25;1.52;;;;;;;;;;4242640;33;20072;-75
2023/05/07 15:34:23;;;;;;;2.22;1.80;;;;;;;;;;4275332;33;20406;-74
2023/05/07 15:36:50;;;;;;;2.30;1.50;;;;;;;;;;4273043;33;20174;-77
2023/05/07 15:39:16;;;;;;;2.15;1.87;;;;;;;;;;4275019;33;20055;-73
2023/05/07 15:41:42;;;;;;;1.75;1.65;;;;;;;;;;4279617;33;20054;-73
2023/05/07 15:44:08;;;;;;;2.00;1.20;;;;;;;;;;4281955;33;20045;-74
2023/05/07 15:46:34;;;;;;;1.52;1.30;;;;;;;;;;4281982;33;20364;-74
2023/05/07 15:49:01;;;;;;;1.50;1.40;;;;;;;;;;4264718;33;20450;-80
2023/05/07 15:51:29;;;;;;;2.42;1.60;;;;;;;;;;4264395;33;20077;-73
2023/05/07 15:53:55;;;;;;;1.52;1.40;;;;;;;;;;4235621;33;20146;-74
2023/05/07 15:56:21;;;;;;;2.33;1.42;;;;;;;;;;4236935;33;20483;-73
2023/05/07 15:58:48;;;;;;;1.65;1.55;;;;;;;;;;4236569;33;20108;-76
2023/05/07 16:01:14;;;;;;;1.40;1.23;;;;;;;;;;4235933;33;20064;-74
2023/05/07 16:03:40;;;;;;;3.90;1.85;;;;;;;;;;4233283;33;20053;-76
2023/05/07 16:06:06;;;;;;;1.75;1.52;;;;;;;;;;4236656;33;20058;-74
2023/05/07 16:08:32;;;;;;;1.25;1.17;;;;;;;;;;4234551;33;20047;-73
2023/05/07 16:10:59;;;;;;;1.40;1.40;;;;;;;;;;4235155;33;20076;-73
2023/05/07 16:13:25;;;;;;;2.25;1.80;;;;;;;;;;4239697;33;20037;-73
2023/05/07 16:15:58;;;;;;;5.97;2.10;;;;;;;;;;4234813;33;20080;-75
2023/05/07 16:18:24;;;;;;;6.00;1.40;;;;;;;;;;4236772;33;20526;-74
2023/05/07 16:20:50;;;;;;;5.80;1.52;;;;;;;;;;4235667;33;20061;-73
2023/05/07 16:23:17;;;;;;;1.55;1.45;;;;;;;;;;4236742;33;20042;-74
2023/05/07 16:25:43;;;;;;;3.50;1.83;;;;;;;;;;4232932;33;20376;-73
2023/05/07 16:28:10;;;;;;;5.43;2.10;;;;;;;;;;4236979;33;20535;-74
2023/05/07 16:30:36;;;;;;;4.62;1.48;;;;;;;;;;4239691;33;20069;-75
2023/05/07 16:33:02;;;;;;;4.68;2.00;;;;;;;;;;4264640;33;20135;-74
2023/05/07 16:35:28;;;;;;;5.03;2.20;;;;;;;;;;4262743;33;20495;-79
2023/05/07 16:37:54;;;;;;;2.25;1.90;;;;;;;;;;4265309;33;20478;-75
2023/05/07 16:40:20;;;;;;;1.67;1.42;;;;;;;;;;4264456;33;20068;-74
2023/05/07 16:42:47;;;;;;;3.72;2.55;;;;;;;;;;4264759;33;20076;-74